createdAt,value
2023-05-19T00:00:20.760Z,3.20
2023-05-19T00:01:20.784Z,3.30
2023-05-19T00:02:20.817Z,2.90
2023-05-19T00:03:20.794Z,3.10
2023-05-19T00:04:20.727Z,3.30
2023-05-19T00:05:20.797Z,3.10
2023-05-19T00:06:20.724Z,3.00
2023-05-19T00:07:20.787Z,3.00
2023-05-19T00:08:20.701Z,3.00
2023-05-19T00:09:20.680Z,3.20
2023-05-19T00:10:20.639Z,3.40
2023-05-19T00:11:20.749Z,3.00
2023-05-19T00:12:20.639Z,3.20
2023-05-19T00:13:20.672Z,3.00
2023-05-19T00:14:20.604Z,3.00
2023-05-19T00:15:20.593Z,2.80
2023-05-19T00:16:20.674Z,3.20
2023-05-19T00:17:20.637Z,3.50
2023-05-19T00:18:20.612Z,3.10
2023-05-19T00:19:20.677Z,3.00
2023-05-19T00:20:20.549Z,3.20
2023-05-19T00:21:20.513Z,2.70
2023-05-19T00:22:20.495Z,3.10
2023-05-19T00:23:20.507Z,3.50
2023-05-19T00:24:20.488Z,2.90
2023-05-19T00:25:20.465Z,3.20
2023-05-19T00:26:20.459Z,3.20
2023-05-19T00:27:20.445Z,3.10
2023-05-19T00:28:20.474Z,3.20
2023-05-19T00:29:20.441Z,3.20
2023-05-19T00:30:20.475Z,3.20
2023-05-19T00:31:20.459Z,3.20
2023-05-19T00:32:27.006Z,3.60
2023-05-19T00:33:20.411Z,3.00
2023-05-19T00:34:20.371Z,2.80
2023-05-19T00:35:20.359Z,2.80
2023-05-19T00:36:20.405Z,3.30
2023-05-19T00:37:20.333Z,3.10
2023-05-19T00:38:20.388Z,2.80
2023-05-19T00:39:20.344Z,3.00
2023-05-19T00:40:20.305Z,3.20
2023-05-19T00:41:20.326Z,3.40
2023-05-19T00:42:20.332Z,3.20
2023-05-19T00:43:20.326Z,3.10
2023-05-19T00:44:20.258Z,2.90
2023-05-19T00:45:20.334Z,3.30
2023-05-19T00:46:20.293Z,3.20
2023-05-19T00:47:20.249Z,2.80
2023-05-19T00:48:20.254Z,3.20
2023-05-19T00:49:20.203Z,3.50
2023-05-19T00:50:20.208Z,2.90
2023-05-19T00:51:20.199Z,2.90
2023-05-19T00:52:20.198Z,3.10
2023-05-19T00:53:20.189Z,2.80
2023-05-19T00:54:20.154Z,3.30
2023-05-19T00:55:20.143Z,3.10
2023-05-19T00:56:20.149Z,3.60
2023-05-19T00:57:20.110Z,3.10
2023-05-19T00:58:20.136Z,3.30
2023-05-19T00:59:20.086Z,3.00
2023-05-19T01:00:20.079Z,3.10
2023-05-19T01:01:20.151Z,3.40
2023-05-19T01:02:20.130Z,3.70
2023-05-19T01:03:20.149Z,3.20
2023-05-19T01:04:20.073Z,3.20
2023-05-19T01:05:20.069Z,3.50
2023-05-19T01:06:20.025Z,3.30
2023-05-19T01:07:20.033Z,3.20
2023-05-19T01:08:20.063Z,2.90
2023-05-19T01:09:19.993Z,3.30
2023-05-19T01:10:19.978Z,3.20
2023-05-19T01:11:19.992Z,3.00
2023-05-19T01:12:19.980Z,3.50
2023-05-19T01:13:19.969Z,3.40
2023-05-19T01:14:19.970Z,3.10
2023-05-19T01:15:19.932Z,3.40
2023-05-19T01:16:19.944Z,3.50
2023-05-19T01:17:19.906Z,3.90
2023-05-19T01:18:19.920Z,3.30
2023-05-19T01:19:20.035Z,3.30
2023-05-19T01:20:19.882Z,3.50
2023-05-19T01:21:19.879Z,3.10
2023-05-19T01:22:19.854Z,3.40
2023-05-19T01:23:19.854Z,3.00
2023-05-19T01:24:19.821Z,3.60
2023-05-19T01:25:19.832Z,3.20
2023-05-19T01:26:19.796Z,4.00
2023-05-19T01:27:19.805Z,3.40
2023-05-19T01:28:19.800Z,3.50
2023-05-19T01:29:19.788Z,3.70
2023-05-19T01:30:19.774Z,3.50
2023-05-19T01:31:19.802Z,3.40
2023-05-19T01:32:19.758Z,3.80
2023-05-19T01:33:19.754Z,3.60
2023-05-19T01:34:19.732Z,3.20
2023-05-19T01:35:19.703Z,3.60
2023-05-19T01:36:19.704Z,3.60
2023-05-19T01:37:19.717Z,3.40
2023-05-19T01:38:19.674Z,3.40
2023-05-19T01:39:19.690Z,3.20
2023-05-19T01:40:19.669Z,3.00
2023-05-19T01:41:19.657Z,3.20
2023-05-19T01:42:19.640Z,3.00
2023-05-19T01:43:19.677Z,3.20
2023-05-19T01:44:19.608Z,3.40
2023-05-19T01:45:19.599Z,2.80
2023-05-19T01:46:19.634Z,2.70
2023-05-19T01:47:19.582Z,3.30
2023-05-19T01:48:19.590Z,3.30
2023-05-19T01:49:19.581Z,3.00
2023-05-19T01:50:19.589Z,3.60
2023-05-19T01:51:19.542Z,3.50
2023-05-19T01:52:19.524Z,3.30
2023-05-19T01:53:19.511Z,3.10
2023-05-19T01:54:19.548Z,3.30
2023-05-19T01:55:19.519Z,3.40
2023-05-19T01:56:19.476Z,3.40
2023-05-19T01:57:19.493Z,3.80
2023-05-19T01:58:19.471Z,3.00
2023-05-19T01:59:19.441Z,3.40
2023-05-19T02:00:21.225Z,3.50
2023-05-19T02:01:19.511Z,3.20
2023-05-19T02:02:19.415Z,3.40
2023-05-19T02:03:19.403Z,3.80
2023-05-19T02:04:19.461Z,3.20
2023-05-19T02:05:19.376Z,3.60
2023-05-19T02:06:19.383Z,3.60
2023-05-19T02:07:19.357Z,4.10
2023-05-19T02:08:19.354Z,3.40
2023-05-19T02:09:19.331Z,3.40
2023-05-19T02:10:19.331Z,3.50
2023-05-19T02:11:19.338Z,3.70
2023-05-19T02:12:19.320Z,3.20
2023-05-19T02:13:19.284Z,3.40
2023-05-19T02:14:19.302Z,3.50
2023-05-19T02:15:19.287Z,4.00
2023-05-19T02:16:19.300Z,3.80
2023-05-19T02:17:19.262Z,3.20
2023-05-19T02:18:19.276Z,3.50
2023-05-19T02:19:19.273Z,3.80
2023-05-19T02:20:19.222Z,3.50
2023-05-19T02:21:19.203Z,3.50
2023-05-19T02:22:19.216Z,3.50
2023-05-19T02:23:19.175Z,3.70
2023-05-19T02:24:19.182Z,3.50
2023-05-19T02:25:19.186Z,3.40
2023-05-19T02:26:19.137Z,3.40
2023-05-19T02:27:19.182Z,3.70
2023-05-19T02:28:19.165Z,3.30
2023-05-19T02:29:19.112Z,4.10
2023-05-19T02:30:19.110Z,3.40
2023-05-19T02:31:19.124Z,4.00
2023-05-19T02:32:19.218Z,3.70
2023-05-19T02:33:19.076Z,3.70
2023-05-19T02:34:19.067Z,3.80
2023-05-19T02:35:19.059Z,3.40
2023-05-19T02:36:19.055Z,3.80
2023-05-19T02:37:19.027Z,3.60
2023-05-19T02:38:19.030Z,3.40
2023-05-19T02:39:19.025Z,3.30
2023-05-19T02:40:18.994Z,3.70
2023-05-19T02:41:18.981Z,3.80
2023-05-19T02:42:18.985Z,3.70
2023-05-19T02:43:18.988Z,3.20
2023-05-19T02:44:18.963Z,3.90
2023-05-19T02:45:18.968Z,4.00
2023-05-19T02:46:18.982Z,3.20
2023-05-19T02:47:18.918Z,4.30
2023-05-19T02:48:18.920Z,4.00
2023-05-19T02:49:18.898Z,3.90
2023-05-19T02:50:18.906Z,3.80
2023-05-19T02:51:18.884Z,3.60
2023-05-19T02:52:18.876Z,3.90
2023-05-19T02:53:18.859Z,3.70
2023-05-19T02:54:18.857Z,3.90
2023-05-19T02:55:18.853Z,4.30
2023-05-19T02:56:18.831Z,3.90
2023-05-19T02:57:18.810Z,4.00
2023-05-19T02:58:18.813Z,3.60
2023-05-19T02:59:18.805Z,4.10
2023-05-19T03:00:18.785Z,3.40
2023-05-19T03:01:18.790Z,3.70
2023-05-19T03:02:18.748Z,3.70
2023-05-19T03:03:19.771Z,3.90
2023-05-19T03:04:18.722Z,3.70
2023-05-19T03:05:18.712Z,3.80
2023-05-19T03:06:18.739Z,3.80
2023-05-19T03:07:18.692Z,4.30
2023-05-19T03:08:18.698Z,4.00
2023-05-19T03:09:18.685Z,3.70
2023-05-19T03:10:18.682Z,3.50
2023-05-19T03:11:18.647Z,4.00
2023-05-19T03:12:18.678Z,4.30
2023-05-19T03:13:18.648Z,3.90
2023-05-19T03:14:18.769Z,4.00
2023-05-19T03:15:18.618Z,4.30
2023-05-19T03:16:18.619Z,3.90
2023-05-19T03:17:18.589Z,4.30
2023-05-19T03:18:18.637Z,4.00
2023-05-19T03:19:18.659Z,3.90
2023-05-19T03:20:18.556Z,4.30
2023-05-19T03:21:18.546Z,4.10
2023-05-19T03:22:18.550Z,3.80
2023-05-19T03:23:18.537Z,4.40
2023-05-19T03:24:18.571Z,3.40
2023-05-19T03:25:18.506Z,4.00
2023-05-19T03:26:18.491Z,4.30
2023-05-19T03:27:18.539Z,3.70
2023-05-19T03:28:18.488Z,4.40
2023-05-19T03:29:18.461Z,4.10
2023-05-19T03:30:18.500Z,4.00
2023-05-19T03:31:18.502Z,3.90
2023-05-19T03:32:18.480Z,3.80
2023-05-19T03:33:18.655Z,4.10
2023-05-19T03:34:18.413Z,4.10
2023-05-19T03:35:18.396Z,3.70
2023-05-19T03:36:18.422Z,3.90
2023-05-19T03:37:18.408Z,3.90
2023-05-19T03:38:18.381Z,4.50
2023-05-19T03:39:18.382Z,4.70
2023-05-19T03:40:18.359Z,4.30
2023-05-19T03:41:18.335Z,3.90
2023-05-19T03:42:18.327Z,4.20
2023-05-19T03:43:18.315Z,4.20
2023-05-19T03:44:18.316Z,4.10
2023-05-19T03:45:18.295Z,4.40
2023-05-19T03:46:18.348Z,4.80
2023-05-19T03:47:18.279Z,3.40
2023-05-19T03:48:21.086Z,4.50
2023-05-19T03:49:18.234Z,4.80
2023-05-19T03:50:18.240Z,3.80
2023-05-19T03:51:18.214Z,3.90
2023-05-19T03:52:18.216Z,4.20
2023-05-19T03:53:18.224Z,4.00
2023-05-19T03:54:18.198Z,4.10
2023-05-19T03:55:18.197Z,4.00
2023-05-19T03:56:18.194Z,4.10
2023-05-19T03:57:18.151Z,3.80
2023-05-19T03:58:18.166Z,3.90
2023-05-19T03:59:18.133Z,3.90
2023-05-19T04:00:18.128Z,4.20
2023-05-19T04:01:18.122Z,3.80
2023-05-19T04:02:18.141Z,3.90
2023-05-19T04:03:18.225Z,4.40
2023-05-19T04:04:18.147Z,3.90
2023-05-19T04:05:18.089Z,3.90
2023-05-19T04:06:18.100Z,4.00
2023-05-19T04:07:18.039Z,3.70
2023-05-19T04:08:18.108Z,4.50
2023-05-19T04:09:18.030Z,3.80
2023-05-19T04:10:18.020Z,3.90
2023-05-19T04:11:18.022Z,3.60
2023-05-19T04:12:17.987Z,3.80
2023-05-19T04:13:18.015Z,4.00
2023-05-19T04:14:17.975Z,4.00
2023-05-19T04:15:17.946Z,4.10
2023-05-19T04:16:18.085Z,4.00
2023-05-19T04:17:17.940Z,3.80
2023-05-19T04:18:17.941Z,4.20
2023-05-19T04:19:18.076Z,4.10
2023-05-19T04:20:17.892Z,4.70
2023-05-19T04:21:17.914Z,4.50
2023-05-19T04:22:17.883Z,4.60
2023-05-19T04:23:17.881Z,4.20
2023-05-19T04:24:17.890Z,4.70
2023-05-19T04:25:17.846Z,3.90
2023-05-19T04:26:17.851Z,3.80
2023-05-19T04:27:17.865Z,3.90
2023-05-19T04:28:17.834Z,4.40
2023-05-19T04:29:17.818Z,3.90
2023-05-19T04:30:18.711Z,4.40
2023-05-19T04:31:17.795Z,3.90
2023-05-19T04:32:18.159Z,4.40
2023-05-19T04:33:17.774Z,3.40
2023-05-19T04:34:17.754Z,3.90
2023-05-19T04:35:17.753Z,4.20
2023-05-19T04:36:17.746Z,4.30
2023-05-19T04:37:17.721Z,4.10
2023-05-19T04:38:17.732Z,3.80
2023-05-19T04:39:17.700Z,3.70
2023-05-19T04:40:17.694Z,3.80
2023-05-19T04:41:17.673Z,4.30
2023-05-19T04:42:17.658Z,4.10
2023-05-19T04:43:17.659Z,3.70
2023-05-19T04:44:17.641Z,4.40
2023-05-19T04:45:17.629Z,4.20
2023-05-19T04:46:17.672Z,3.90
2023-05-19T04:47:17.613Z,3.80
2023-05-19T04:48:17.611Z,4.20
2023-05-19T04:49:17.630Z,4.20
2023-05-19T04:50:17.607Z,3.80
2023-05-19T04:51:17.564Z,3.80
2023-05-19T04:52:17.556Z,5.10
2023-05-19T04:53:17.550Z,3.90
2023-05-19T04:54:17.555Z,4.50
2023-05-19T04:55:17.527Z,4.00
2023-05-19T04:56:17.523Z,4.70
2023-05-19T04:57:17.495Z,3.90
2023-05-19T04:58:17.549Z,4.40
2023-05-19T04:59:17.472Z,3.80
2023-05-19T05:00:17.469Z,4.20
2023-05-19T05:01:17.505Z,4.00
2023-05-19T05:02:17.526Z,5.10
2023-05-19T05:03:17.571Z,4.20
2023-05-19T05:04:17.413Z,4.10
2023-05-19T05:05:17.404Z,4.60
2023-05-19T05:06:17.389Z,4.10
2023-05-19T05:07:17.416Z,4.30
2023-05-19T05:08:17.396Z,3.90
2023-05-19T05:09:17.362Z,4.30
2023-05-19T05:10:17.366Z,4.60
2023-05-19T05:11:17.337Z,4.80
2023-05-19T05:12:17.321Z,4.10
2023-05-19T05:13:17.347Z,4.60
2023-05-19T05:14:17.325Z,4.30
2023-05-19T05:15:17.310Z,4.70
2023-05-19T05:16:17.361Z,4.50
2023-05-19T05:17:17.289Z,4.10
2023-05-19T05:18:17.284Z,4.30
2023-05-19T05:19:17.321Z,4.70
2023-05-19T05:20:17.253Z,4.40
2023-05-19T05:21:17.226Z,4.30
2023-05-19T05:22:17.268Z,4.30
2023-05-19T05:23:17.221Z,4.10
2023-05-19T05:24:17.197Z,4.80
2023-05-19T05:25:17.201Z,4.60
2023-05-19T05:26:17.167Z,4.20
2023-05-19T05:27:17.157Z,4.30
2023-05-19T05:28:17.188Z,4.40
2023-05-19T05:29:17.154Z,3.90
2023-05-19T05:30:17.126Z,3.70
2023-05-19T05:31:17.110Z,4.30
2023-05-19T05:32:17.183Z,4.60
2023-05-19T05:33:17.207Z,4.20
2023-05-19T05:34:17.089Z,4.60
2023-05-19T05:35:17.068Z,4.20
2023-05-19T05:36:17.071Z,4.20
2023-05-19T05:37:17.068Z,4.60
2023-05-19T05:38:17.053Z,4.70
2023-05-19T05:39:17.022Z,4.20
2023-05-19T05:40:17.043Z,4.30
2023-05-19T05:41:17.012Z,4.10
2023-05-19T05:42:16.996Z,4.50
2023-05-19T05:43:17.004Z,4.40
2023-05-19T05:44:16.990Z,4.60
2023-05-19T05:45:16.970Z,3.80
2023-05-19T05:46:16.988Z,4.40
2023-05-19T05:47:16.934Z,4.20
2023-05-19T05:48:17.003Z,3.90
2023-05-19T05:49:16.914Z,4.40
2023-05-19T05:50:16.913Z,4.90
2023-05-19T05:51:16.942Z,4.00
2023-05-19T05:52:16.897Z,4.70
2023-05-19T05:53:16.886Z,3.90
2023-05-19T05:54:16.866Z,4.00
2023-05-19T05:55:16.873Z,4.60
2023-05-19T05:56:16.841Z,3.80
2023-05-19T05:57:16.834Z,4.10
2023-05-19T05:58:16.826Z,3.80
2023-05-19T05:59:16.833Z,4.00
2023-05-19T06:00:16.799Z,3.70
2023-05-19T06:01:16.788Z,3.40
2023-05-19T06:02:16.814Z,3.40
2023-05-19T06:03:16.975Z,3.40
2023-05-19T06:04:16.804Z,4.10
2023-05-19T06:05:16.835Z,4.60
2023-05-19T06:06:16.755Z,3.70
2023-05-19T06:07:16.773Z,3.80
2023-05-19T06:08:16.773Z,3.70
2023-05-19T06:09:16.723Z,4.10
2023-05-19T06:10:16.700Z,4.30
2023-05-19T06:11:16.679Z,4.50
2023-05-19T06:12:16.722Z,3.30
2023-05-19T06:13:16.680Z,4.00
2023-05-19T06:14:16.689Z,3.20
2023-05-19T06:15:16.642Z,4.30
2023-05-19T06:16:16.741Z,3.70
2023-05-19T06:17:16.605Z,4.30
2023-05-19T06:18:16.631Z,3.50
2023-05-19T06:19:16.691Z,3.40
2023-05-19T06:20:16.579Z,3.40
2023-05-19T06:21:16.566Z,3.50
2023-05-19T06:22:16.590Z,3.30
2023-05-19T06:23:16.556Z,3.00
2023-05-19T06:24:16.560Z,3.10
2023-05-19T06:25:16.524Z,3.40
2023-05-19T06:26:16.532Z,3.40
2023-05-19T06:27:16.522Z,3.10
2023-05-19T06:28:16.510Z,3.10
2023-05-19T06:29:16.502Z,3.70
2023-05-19T06:30:16.533Z,3.50
2023-05-19T06:31:16.551Z,3.40
2023-05-19T06:32:16.465Z,3.70
2023-05-19T06:33:16.478Z,2.80
2023-05-19T06:34:16.452Z,3.30
2023-05-19T06:35:16.416Z,3.90
2023-05-19T06:36:16.455Z,3.30
2023-05-19T06:37:16.406Z,3.10
2023-05-19T06:38:16.415Z,3.20
2023-05-19T06:39:16.406Z,3.00
2023-05-19T06:40:16.377Z,3.20
2023-05-19T06:41:16.376Z,3.10
2023-05-19T06:42:16.353Z,3.10
2023-05-19T06:43:16.349Z,3.00
2023-05-19T06:44:16.362Z,2.80
2023-05-19T06:45:16.344Z,2.90
2023-05-19T06:46:16.313Z,2.70
2023-05-19T06:47:16.459Z,3.10
2023-05-19T06:48:16.546Z,2.40
2023-05-19T06:49:16.308Z,2.90
2023-05-19T06:50:16.275Z,2.50
2023-05-19T06:51:16.241Z,3.10
2023-05-19T06:52:16.245Z,2.60
2023-05-19T06:53:16.238Z,2.90
2023-05-19T06:54:16.548Z,2.50
2023-05-19T06:55:17.174Z,2.60
2023-05-19T06:56:16.202Z,3.20
2023-05-19T06:57:16.182Z,2.60
2023-05-19T06:58:16.191Z,2.40
2023-05-19T06:59:16.181Z,2.50
2023-05-19T07:00:18.707Z,2.20
2023-05-19T07:01:17.152Z,2.40
2023-05-19T07:02:16.155Z,2.70
2023-05-19T07:03:16.179Z,2.50
2023-05-19T07:04:16.137Z,2.80
2023-05-19T07:05:16.095Z,2.60
2023-05-19T07:06:16.107Z,2.30
2023-05-19T07:07:16.069Z,2.20
2023-05-19T07:08:16.085Z,2.80
2023-05-19T07:09:16.063Z,2.30
2023-05-19T07:10:16.050Z,3.00
2023-05-19T07:11:16.032Z,2.60
2023-05-19T07:12:16.020Z,2.10
2023-05-19T07:13:15.991Z,2.60
2023-05-19T07:14:16.022Z,2.50
2023-05-19T07:15:16.651Z,2.40
2023-05-19T07:16:16.085Z,2.60
2023-05-19T07:17:15.976Z,2.10
2023-05-19T07:18:15.952Z,1.70
2023-05-19T07:19:15.993Z,2.00
2023-05-19T07:20:15.925Z,2.10
2023-05-19T07:21:15.919Z,1.90
2023-05-19T07:22:15.921Z,1.90
2023-05-19T07:23:17.389Z,2.10
2023-05-19T07:24:15.899Z,2.40
2023-05-19T07:25:15.896Z,2.00
2023-05-19T07:26:15.858Z,2.10
2023-05-19T07:27:15.853Z,1.90
2023-05-19T07:28:15.870Z,2.80
2023-05-19T07:29:15.837Z,2.10
2023-05-19T07:30:15.816Z,2.20
2023-05-19T07:31:15.810Z,2.60
2023-05-19T07:32:15.870Z,2.40
2023-05-19T07:33:15.867Z,2.00
2023-05-19T07:34:15.796Z,2.30
2023-05-19T07:35:15.796Z,2.40
2023-05-19T07:36:15.756Z,2.10
2023-05-19T07:37:15.793Z,2.30
2023-05-19T07:38:15.731Z,2.20
2023-05-19T07:39:15.808Z,2.30
2023-05-19T07:40:15.716Z,2.00
2023-05-19T07:41:36.735Z,2.20
2023-05-19T07:42:36.708Z,2.10
2023-05-19T07:43:15.673Z,2.50
2023-05-19T07:44:15.676Z,2.80
2023-05-19T07:45:15.666Z,2.10
2023-05-19T07:46:15.727Z,2.80
2023-05-19T07:47:15.623Z,2.40
2023-05-19T07:48:15.665Z,2.20
2023-05-19T07:49:15.641Z,1.90
2023-05-19T07:50:15.609Z,2.10
2023-05-19T07:51:15.587Z,1.70
2023-05-19T07:52:15.579Z,2.40
2023-05-19T07:53:15.562Z,2.40
2023-05-19T07:54:16.153Z,2.20
2023-05-19T07:55:15.546Z,2.10
2023-05-19T07:56:15.535Z,2.40
2023-05-19T07:57:15.528Z,1.70
2023-05-19T07:58:15.530Z,1.70
2023-05-19T07:59:15.521Z,2.10
2023-05-19T08:00:15.508Z,2.10
2023-05-19T08:01:15.467Z,1.90
2023-05-19T08:02:15.495Z,1.90
2023-05-19T08:03:15.599Z,2.50
2023-05-19T08:04:15.529Z,1.80
2023-05-19T08:05:15.442Z,1.90
2023-05-19T08:06:15.443Z,2.00
2023-05-19T08:07:15.408Z,1.90
2023-05-19T08:08:15.403Z,2.00
2023-05-19T08:09:15.411Z,2.00
2023-05-19T08:10:15.382Z,2.20
2023-05-19T08:11:15.374Z,1.90
2023-05-19T08:12:15.355Z,1.90
2023-05-19T08:13:15.344Z,2.20
2023-05-19T08:14:15.368Z,1.80
2023-05-19T08:15:15.339Z,2.00
2023-05-19T08:16:15.389Z,2.20
2023-05-19T08:17:15.326Z,1.70
2023-05-19T08:18:15.286Z,2.10
2023-05-19T08:19:15.340Z,2.50
2023-05-19T08:20:15.275Z,2.20
2023-05-19T08:21:15.254Z,2.00
2023-05-19T08:22:15.248Z,1.90
2023-05-19T08:23:15.234Z,2.10
2023-05-19T08:24:15.257Z,2.50
2023-05-19T08:25:15.223Z,2.00
2023-05-19T08:26:15.211Z,2.20
2023-05-19T08:27:15.191Z,2.80
2023-05-19T08:28:15.198Z,1.90
2023-05-19T08:29:15.216Z,1.80
2023-05-19T08:30:15.180Z,2.00
2023-05-19T08:31:15.173Z,2.00
2023-05-19T08:32:15.182Z,1.90
2023-05-19T08:33:15.182Z,2.00
2023-05-19T08:34:15.144Z,2.30
2023-05-19T08:35:15.130Z,2.20
2023-05-19T08:36:15.113Z,2.00
2023-05-19T08:37:15.103Z,2.20
2023-05-19T08:38:15.102Z,2.00
2023-05-19T08:39:15.083Z,2.10
2023-05-19T08:40:15.070Z,2.30
2023-05-19T08:41:15.559Z,2.10
2023-05-19T08:42:15.039Z,2.10
2023-05-19T08:43:15.026Z,2.20
2023-05-19T08:44:16.990Z,2.20
2023-05-19T08:45:15.007Z,2.00
2023-05-19T08:46:15.153Z,2.10
2023-05-19T08:47:15.037Z,2.00
2023-05-19T08:48:15.000Z,2.00
2023-05-19T08:49:14.992Z,1.80
2023-05-19T08:50:14.949Z,1.90
2023-05-19T08:51:14.943Z,2.00
2023-05-19T08:52:14.949Z,2.10
2023-05-19T08:53:28.888Z,2.10
2023-05-19T08:54:14.927Z,2.20
2023-05-19T08:55:14.908Z,1.70
2023-05-19T08:56:14.887Z,1.80
2023-05-19T08:57:14.867Z,2.80
2023-05-19T08:58:14.855Z,1.70
2023-05-19T08:59:14.860Z,2.10
2023-05-19T09:00:14.850Z,1.90
2023-05-19T09:01:14.868Z,2.00
2023-05-19T09:02:14.837Z,2.20
2023-05-19T09:03:22.809Z,2.50
2023-05-19T09:04:14.860Z,2.40
2023-05-19T09:05:14.871Z,2.30
2023-05-19T09:06:14.805Z,2.10
2023-05-19T09:07:14.766Z,1.90
2023-05-19T09:08:14.761Z,2.30
2023-05-19T09:09:14.748Z,2.00
2023-05-19T09:10:14.720Z,1.70
2023-05-19T09:11:14.707Z,1.60
2023-05-19T09:12:14.710Z,1.90
2023-05-19T09:13:14.698Z,1.60
2023-05-19T09:14:14.695Z,1.90
2023-05-19T09:15:14.664Z,2.30
2023-05-19T09:16:14.681Z,2.20
2023-05-19T09:17:14.677Z,1.90
2023-05-19T09:18:14.658Z,2.30
2023-05-19T09:19:14.697Z,2.10
2023-05-19T09:20:14.625Z,2.10
2023-05-19T09:21:14.593Z,2.80
2023-05-19T09:22:14.606Z,2.40
2023-05-19T09:23:14.580Z,2.50
2023-05-19T09:24:14.597Z,2.20
2023-05-19T09:25:14.553Z,1.80
2023-05-19T09:26:14.551Z,1.90
2023-05-19T09:27:14.528Z,2.20
2023-05-19T09:28:14.536Z,1.90
2023-05-19T09:29:14.547Z,2.20
2023-05-19T09:30:14.521Z,2.10
2023-05-19T09:31:14.497Z,2.30
2023-05-19T09:32:14.506Z,2.00
2023-05-19T09:33:14.503Z,2.00
2023-05-19T09:34:14.483Z,2.00
2023-05-19T09:35:14.439Z,1.90
2023-05-19T09:36:14.446Z,2.50
2023-05-19T09:37:14.419Z,2.20
2023-05-19T09:38:14.414Z,2.00
2023-05-19T09:39:14.415Z,2.10
2023-05-19T09:40:14.410Z,1.70
2023-05-19T09:41:14.387Z,2.50
2023-05-19T09:42:14.378Z,2.10
2023-05-19T09:43:14.357Z,2.40
2023-05-19T09:44:14.519Z,2.10
2023-05-19T09:45:14.328Z,2.10
2023-05-19T09:46:14.734Z,2.50
2023-05-19T09:47:14.308Z,1.70
2023-05-19T09:48:14.302Z,1.70
2023-05-19T09:49:14.307Z,1.80
2023-05-19T09:50:14.285Z,1.90
2023-05-19T09:51:14.268Z,1.90
2023-05-19T09:52:14.260Z,2.20
2023-05-19T09:53:14.260Z,1.80
2023-05-19T09:54:14.264Z,2.20
2023-05-19T09:55:14.219Z,2.40
2023-05-19T09:56:14.216Z,1.80
2023-05-19T09:57:14.199Z,2.30
2023-05-19T09:58:14.188Z,2.50
2023-05-19T09:59:14.199Z,2.00
2023-05-19T10:00:14.249Z,2.10
2023-05-19T10:01:14.169Z,2.00
2023-05-19T10:02:14.148Z,1.90
2023-05-19T10:03:14.175Z,2.20
2023-05-19T10:04:14.142Z,1.60
2023-05-19T10:05:14.208Z,2.10
2023-05-19T10:06:14.103Z,2.40
2023-05-19T10:07:14.090Z,2.10
2023-05-19T10:08:14.088Z,1.90
2023-05-19T10:09:14.106Z,2.10
2023-05-19T10:10:14.101Z,2.10
2023-05-19T10:11:14.040Z,2.10
2023-05-19T10:12:14.043Z,2.30
2023-05-19T10:13:14.040Z,2.10
2023-05-19T10:14:14.039Z,1.80
2023-05-19T10:15:14.011Z,2.20
2023-05-19T10:16:14.012Z,2.00
2023-05-19T10:17:13.984Z,1.90
2023-05-19T10:18:14.015Z,1.80
2023-05-19T10:19:14.098Z,2.50
2023-05-19T10:20:13.965Z,2.20
2023-05-19T10:21:13.938Z,2.30
2023-05-19T10:22:14.110Z,2.20
2023-05-19T10:23:13.934Z,1.60
2023-05-19T10:24:13.947Z,1.70
2023-05-19T10:25:13.904Z,2.00
2023-05-19T10:26:13.881Z,1.80
2023-05-19T10:27:13.908Z,2.00
2023-05-19T10:28:13.869Z,1.60
2023-05-19T10:29:13.890Z,1.90
2023-05-19T10:30:15.662Z,1.80
2023-05-19T10:31:13.850Z,2.40
2023-05-19T10:32:13.865Z,1.90
2023-05-19T10:33:13.869Z,1.60
2023-05-19T10:34:13.823Z,2.10
2023-05-19T10:35:13.776Z,1.90
2023-05-19T10:36:18.354Z,2.00
2023-05-19T10:37:13.812Z,1.60
2023-05-19T10:38:13.750Z,1.80
2023-05-19T10:39:13.761Z,2.00
2023-05-19T10:40:13.733Z,2.60
2023-05-19T10:41:13.764Z,1.70
2023-05-19T10:42:13.710Z,1.60
2023-05-19T10:43:13.735Z,1.70
2023-05-19T10:44:13.714Z,1.40
2023-05-19T10:45:13.729Z,2.10
2023-05-19T10:46:13.714Z,2.60
2023-05-19T10:47:13.765Z,2.30
2023-05-19T10:48:13.750Z,2.40
2023-05-19T10:49:13.658Z,2.00
2023-05-19T10:50:13.636Z,1.50
2023-05-19T10:51:14.587Z,1.90
2023-05-19T10:52:13.616Z,1.80
2023-05-19T10:53:13.604Z,1.60
2023-05-19T10:54:14.415Z,1.70
2023-05-19T10:55:13.576Z,1.70
2023-05-19T10:56:13.564Z,1.70
2023-05-19T10:57:13.553Z,1.90
2023-05-19T10:58:13.544Z,2.50
2023-05-19T10:59:13.541Z,2.20
2023-05-19T11:00:13.536Z,1.90
2023-05-19T11:01:13.510Z,2.70
2023-05-19T11:02:13.644Z,2.20
2023-05-19T11:03:13.626Z,2.20
2023-05-19T11:04:13.568Z,2.20
2023-05-19T11:05:13.461Z,2.00
2023-05-19T11:06:13.496Z,1.80
2023-05-19T11:07:13.990Z,1.60
2023-05-19T11:08:13.459Z,1.50
2023-05-19T11:09:13.468Z,2.00
2023-05-19T11:10:13.594Z,1.70
2023-05-19T11:11:13.398Z,2.20
2023-05-19T11:12:13.413Z,1.60
2023-05-19T11:13:14.906Z,2.10
2023-05-19T11:14:13.405Z,2.10
2023-05-19T11:15:13.385Z,1.90
2023-05-19T11:16:13.397Z,2.10
2023-05-19T11:17:13.346Z,1.90
2023-05-19T11:18:13.346Z,1.70
2023-05-19T11:19:13.336Z,2.30
2023-05-19T11:20:13.341Z,1.50
2023-05-19T11:21:13.306Z,2.10
2023-05-19T11:22:13.297Z,1.80
2023-05-19T11:23:13.303Z,1.90
2023-05-19T11:24:13.257Z,1.70
2023-05-19T11:25:13.268Z,1.40
2023-05-19T11:26:13.258Z,1.50
2023-05-19T11:27:13.228Z,1.70
2023-05-19T11:28:13.223Z,1.60
2023-05-19T11:29:13.212Z,1.80
2023-05-19T11:30:13.258Z,1.50
2023-05-19T11:31:13.206Z,1.90
2023-05-19T11:32:13.245Z,1.70
2023-05-19T11:33:13.227Z,1.80
2023-05-19T11:34:13.171Z,2.10
2023-05-19T11:35:13.155Z,1.80
2023-05-19T11:36:13.131Z,1.90
2023-05-19T11:37:13.145Z,2.10
2023-05-19T11:38:13.108Z,1.70
2023-05-19T11:39:13.111Z,2.00
2023-05-19T11:40:13.130Z,1.80
2023-05-19T11:41:13.067Z,1.50
2023-05-19T11:42:13.061Z,2.00
2023-05-19T11:43:13.044Z,1.70
2023-05-19T11:44:13.050Z,1.40
2023-05-19T11:45:13.048Z,1.90
2023-05-19T11:46:13.068Z,1.60
2023-05-19T11:47:13.009Z,1.70
2023-05-19T11:48:13.082Z,1.70
2023-05-19T11:49:12.990Z,3.00
2023-05-19T11:50:12.999Z,2.10
2023-05-19T11:51:12.957Z,2.20
2023-05-19T11:52:12.963Z,2.00
2023-05-19T11:53:12.948Z,1.40
2023-05-19T11:54:12.947Z,1.60
2023-05-19T11:55:12.936Z,2.10
2023-05-19T11:56:12.912Z,1.50
2023-05-19T11:57:12.919Z,2.00
2023-05-19T11:58:12.896Z,1.70
2023-05-19T11:59:12.880Z,1.80
2023-05-19T12:00:12.873Z,1.50
2023-05-19T12:01:12.849Z,1.70
2023-05-19T12:02:12.869Z,1.40
2023-05-19T12:03:12.965Z,1.60
2023-05-19T12:04:12.842Z,1.30
2023-05-19T12:05:12.874Z,1.70
2023-05-19T12:06:12.839Z,1.50
2023-05-19T12:07:12.795Z,1.60
2023-05-19T12:08:12.892Z,1.50
2023-05-19T12:09:12.774Z,1.40
2023-05-19T12:10:12.781Z,1.60
2023-05-19T12:11:12.756Z,1.30
2023-05-19T12:12:12.737Z,1.40
2023-05-19T12:13:12.760Z,1.40
2023-05-19T12:14:12.725Z,1.40
2023-05-19T12:15:12.714Z,1.40
2023-05-19T12:16:12.744Z,2.00
2023-05-19T12:17:12.673Z,1.70
2023-05-19T12:18:12.745Z,1.80
2023-05-19T12:19:12.713Z,1.50
2023-05-19T12:20:12.662Z,1.80
2023-05-19T12:21:12.633Z,2.20
2023-05-19T12:22:12.634Z,1.50
2023-05-19T12:23:12.621Z,1.70
2023-05-19T12:24:12.603Z,1.20
2023-05-19T12:25:12.655Z,1.90
2023-05-19T12:26:12.597Z,1.60
2023-05-19T12:27:12.574Z,2.30
2023-05-19T12:28:12.593Z,1.60
2023-05-19T12:29:12.545Z,1.60
2023-05-19T12:30:12.562Z,1.30
2023-05-19T12:31:12.645Z,1.70
2023-05-19T12:32:12.525Z,1.70
2023-05-19T12:33:19.073Z,1.70
2023-05-19T12:34:12.500Z,1.30
2023-05-19T12:35:12.503Z,1.70
2023-05-19T12:36:12.470Z,1.70
2023-05-19T12:37:12.486Z,1.60
2023-05-19T12:38:12.473Z,1.60
2023-05-19T12:39:12.441Z,2.20
2023-05-19T12:40:12.472Z,1.40
2023-05-19T12:41:12.434Z,2.20
2023-05-19T12:42:12.416Z,1.50
2023-05-19T12:43:12.411Z,1.80
2023-05-19T12:44:12.397Z,1.70
2023-05-19T12:45:12.408Z,1.40
2023-05-19T12:46:12.580Z,1.40
2023-05-19T12:47:12.371Z,1.40
2023-05-19T12:48:12.758Z,1.50
2023-05-19T12:49:12.365Z,1.60
2023-05-19T12:50:12.372Z,1.60
2023-05-19T12:51:12.314Z,1.70
2023-05-19T12:52:13.174Z,1.80
2023-05-19T12:53:12.321Z,1.80
2023-05-19T12:54:12.320Z,1.40
2023-05-19T12:55:12.464Z,1.70
2023-05-19T12:56:12.278Z,1.90
2023-05-19T12:57:12.269Z,1.60
2023-05-19T12:58:12.273Z,1.60
2023-05-19T12:59:12.291Z,1.40
2023-05-19T13:00:12.264Z,1.70
2023-05-19T13:01:12.436Z,1.70
2023-05-19T13:02:12.272Z,1.60
2023-05-19T13:03:12.274Z,1.90
2023-05-19T13:04:12.282Z,1.90
2023-05-19T13:05:12.221Z,1.80
2023-05-19T13:06:12.157Z,1.90
2023-05-19T13:07:12.155Z,2.40
2023-05-19T13:08:12.141Z,2.90
2023-05-19T13:09:12.122Z,1.40
2023-05-19T13:10:12.134Z,1.70
2023-05-19T13:11:12.128Z,2.90
2023-05-19T13:12:12.099Z,1.50
2023-05-19T13:13:12.128Z,1.80
2023-05-19T13:14:12.087Z,1.90
2023-05-19T13:15:12.088Z,1.90
2023-05-19T13:16:12.063Z,1.50
2023-05-19T13:17:12.029Z,1.50
2023-05-19T13:18:12.046Z,1.80